sensor_id;sensor_type;location;lat;lon;timestamp;P1;durP1;ratioP1;P2;durP2;ratioP2
26686;SDS011;14298;50.900;4.648;2023-12-07T00:00:48;6.63;;;5.50;;
26686;SDS011;14298;50.900;4.648;2023-12-07T00:03:16;6.40;;;5.77;;
26686;SDS011;14298;50.900;4.648;2023-12-07T00:05:44;5.00;;;4.60;;
26686;SDS011;14298;50.900;4.648;2023-12-07T00:08:12;7.00;;;5.33;;
26686;SDS011;14298;50.900;4.648;2023-12-07T00:10:40;7.33;;;6.63;;
26686;SDS011;14298;50.900;4.648;2023-12-07T00:13:08;9.27;;;8.10;;
26686;SDS011;14298;50.900;4.648;2023-12-07T00:15:36;10.63;;;6.27;;
26686;SDS011;14298;50.900;4.648;2023-12-07T00:18:04;10.03;;;6.87;;
26686;SDS011;14298;50.900;4.648;2023-12-07T00:20:32;11.73;;;6.87;;
26686;SDS011;14298;50.900;4.648;2023-12-07T00:23:00;9.30;;;6.13;;
26686;SDS011;14298;50.900;4.648;2023-12-07T00:25:28;6.30;;;5.70;;
26686;SDS011;14298;50.900;4.648;2023-12-07T00:27:56;13.03;;;6.53;;
26686;SDS011;14298;50.900;4.648;2023-12-07T00:30:24;10.67;;;7.07;;
26686;SDS011;14298;50.900;4.648;2023-12-07T00:32:52;9.90;;;5.47;;
26686;SDS011;14298;50.900;4.648;2023-12-07T00:35:20;7.67;;;6.93;;
26686;SDS011;14298;50.900;4.648;2023-12-07T00:37:50;6.77;;;6.13;;
26686;SDS011;14298;50.900;4.648;2023-12-07T00:40:18;5.20;;;4.53;;
26686;SDS011;14298;50.900;4.648;2023-12-07T00:42:46;7.43;;;6.87;;
26686;SDS011;14298;50.900;4.648;2023-12-07T00:48:01;6.97;;;6.40;;
26686;SDS011;14298;50.900;4.648;2023-12-07T00:50:29;6.03;;;5.23;;
26686;SDS011;14298;50.900;4.648;2023-12-07T00:52:57;13.20;;;6.53;;
26686;SDS011;14298;50.900;4.648;2023-12-07T00:55:25;13.33;;;6.33;;
26686;SDS011;14298;50.900;4.648;2023-12-07T01:00:41;9.73;;;7.50;;
26686;SDS011;14298;50.900;4.648;2023-12-07T01:03:09;6.73;;;5.13;;
26686;SDS011;14298;50.900;4.648;2023-12-07T01:05:37;5.30;;;4.47;;
26686;SDS011;14298;50.900;4.648;2023-12-07T01:08:05;6.27;;;5.27;;
26686;SDS011;14298;50.900;4.648;2023-12-07T01:10:33;8.67;;;5.53;;
26686;SDS011;14298;50.900;4.648;2023-12-07T01:13:01;8.87;;;6.40;;
26686;SDS011;14298;50.900;4.648;2023-12-07T01:15:29;12.13;;;6.27;;
26686;SDS011;14298;50.900;4.648;2023-12-07T01:17:57;4.83;;;4.53;;
26686;SDS011;14298;50.900;4.648;2023-12-07T01:20:25;11.27;;;6.77;;
26686;SDS011;14298;50.900;4.648;2023-12-07T01:22:53;11.30;;;5.43;;
26686;SDS011;14298;50.900;4.648;2023-12-07T01:25:21;14.93;;;6.43;;
26686;SDS011;14298;50.900;4.648;2023-12-07T01:27:49;10.53;;;6.33;;
26686;SDS011;14298;50.900;4.648;2023-12-07T01:30:17;9.53;;;7.60;;
26686;SDS011;14298;50.900;4.648;2023-12-07T01:32:45;6.37;;;5.43;;
26686;SDS011;14298;50.900;4.648;2023-12-07T01:35:13;6.23;;;5.30;;
26686;SDS011;14298;50.900;4.648;2023-12-07T01:37:41;11.80;;;7.10;;
26686;SDS011;14298;50.900;4.648;2023-12-07T01:40:10;6.93;;;5.10;;
26686;SDS011;14298;50.900;4.648;2023-12-07T01:42:38;9.83;;;6.67;;
26686;SDS011;14298;50.900;4.648;2023-12-07T01:45:06;8.40;;;6.13;;
26686;SDS011;14298;50.900;4.648;2023-12-07T01:47:35;9.80;;;7.30;;
26686;SDS011;14298;50.900;4.648;2023-12-07T01:50:03;11.50;;;5.67;;
26686;SDS011;14298;50.900;4.648;2023-12-07T01:55:20;6.53;;;5.83;;
26686;SDS011;14298;50.900;4.648;2023-12-07T01:57:49;8.53;;;7.63;;
26686;SDS011;14298;50.900;4.648;2023-12-07T02:00:17;11.37;;;8.17;;
26686;SDS011;14298;50.900;4.648;2023-12-07T02:02:46;8.23;;;6.23;;
26686;SDS011;14298;50.900;4.648;2023-12-07T02:05:14;16.37;;;6.00;;
26686;SDS011;14298;50.900;4.648;2023-12-07T02:10:30;7.83;;;5.73;;
26686;SDS011;14298;50.900;4.648;2023-12-07T02:12:58;7.07;;;5.60;;
26686;SDS011;14298;50.900;4.648;2023-12-07T02:15:26;9.10;;;7.23;;
26686;SDS011;14298;50.900;4.648;2023-12-07T02:17:57;12.23;;;8.93;;
26686;SDS011;14298;50.900;4.648;2023-12-07T02:23:12;12.30;;;7.53;;
26686;SDS011;14298;50.900;4.648;2023-12-07T02:25:48;15.27;;;8.50;;
26686;SDS011;14298;50.900;4.648;2023-12-07T02:28:14;6.63;;;5.93;;
26686;SDS011;14298;50.900;4.648;2023-12-07T02:30:42;22.40;;;8.93;;
26686;SDS011;14298;50.900;4.648;2023-12-07T02:33:10;13.00;;;9.00;;
26686;SDS011;14298;50.900;4.648;2023-12-07T02:35:39;11.87;;;8.17;;
26686;SDS011;14298;50.900;4.648;2023-12-07T02:38:07;12.17;;;8.17;;
26686;SDS011;14298;50.900;4.648;2023-12-07T02:40:35;7.10;;;6.43;;
26686;SDS011;14298;50.900;4.648;2023-12-07T02:43:04;13.07;;;7.23;;
26686;SDS011;14298;50.900;4.648;2023-12-07T02:45:33;15.93;;;8.73;;
26686;SDS011;14298;50.900;4.648;2023-12-07T02:48:01;9.80;;;7.07;;
26686;SDS011;14298;50.900;4.648;2023-12-07T02:50:29;10.47;;;7.17;;
26686;SDS011;14298;50.900;4.648;2023-12-07T02:52:57;12.07;;;8.87;;
26686;SDS011;14298;50.900;4.648;2023-12-07T02:55:25;10.47;;;7.67;;
26686;SDS011;14298;50.900;4.648;2023-12-07T02:57:53;8.73;;;6.87;;
26686;SDS011;14298;50.900;4.648;2023-12-07T03:00:21;13.63;;;9.43;;
26686;SDS011;14298;50.900;4.648;2023-12-07T03:02:49;7.63;;;7.03;;
26686;SDS011;14298;50.900;4.648;2023-12-07T03:05:17;8.93;;;7.73;;
26686;SDS011;14298;50.900;4.648;2023-12-07T03:07:47;5.40;;;4.90;;
26686;SDS011;14298;50.900;4.648;2023-12-07T03:10:15;8.63;;;7.73;;
26686;SDS011;14298;50.900;4.648;2023-12-07T03:12:43;7.23;;;6.13;;
26686;SDS011;14298;50.900;4.648;2023-12-07T03:15:11;7.20;;;6.53;;
26686;SDS011;14298;50.900;4.648;2023-12-07T03:17:40;6.80;;;6.17;;
26686;SDS011;14298;50.900;4.648;2023-12-07T03:20:08;6.43;;;5.90;;
26686;SDS011;14298;50.900;4.648;2023-12-07T03:22:37;6.17;;;5.57;;
26686;SDS011;14298;50.900;4.648;2023-12-07T03:27:52;9.67;;;5.30;;
26686;SDS011;14298;50.900;4.648;2023-12-07T03:30:20;6.23;;;5.60;;
26686;SDS011;14298;50.900;4.648;2023-12-07T03:32:48;8.60;;;5.40;;
26686;SDS011;14298;50.900;4.648;2023-12-07T03:35:16;8.00;;;7.20;;
26686;SDS011;14298;50.900;4.648;2023-12-07T03:37:44;9.80;;;7.10;;
26686;SDS011;14298;50.900;4.648;2023-12-07T03:40:12;7.67;;;5.73;;
26686;SDS011;14298;50.900;4.648;2023-12-07T03:42:40;7.47;;;6.57;;
26686;SDS011;14298;50.900;4.648;2023-12-07T03:45:08;7.73;;;7.00;;
26686;SDS011;14298;50.900;4.648;2023-12-07T03:47:36;10.40;;;7.73;;
26686;SDS011;14298;50.900;4.648;2023-12-07T03:50:05;6.67;;;5.47;;
26686;SDS011;14298;50.900;4.648;2023-12-07T03:52:33;7.63;;;5.53;;
26686;SDS011;14298;50.900;4.648;2023-12-07T03:55:01;6.83;;;6.27;;
26686;SDS011;14298;50.900;4.648;2023-12-07T03:57:29;7.07;;;6.37;;
26686;SDS011;14298;50.900;4.648;2023-12-07T03:59:58;5.03;;;4.53;;
26686;SDS011;14298;50.900;4.648;2023-12-07T04:02:26;7.83;;;6.13;;
26686;SDS011;14298;50.900;4.648;2023-12-07T04:04:54;7.20;;;5.27;;
26686;SDS011;14298;50.900;4.648;2023-12-07T04:07:22;13.50;;;7.93;;
26686;SDS011;14298;50.900;4.648;2023-12-07T04:09:50;5.73;;;5.33;;
26686;SDS011;14298;50.900;4.648;2023-12-07T04:12:19;7.53;;;6.67;;
26686;SDS011;14298;50.900;4.648;2023-12-07T04:14:47;8.27;;;7.00;;
26686;SDS011;14298;50.900;4.648;2023-12-07T04:17:15;8.53;;;5.57;;
26686;SDS011;14298;50.900;4.648;2023-12-07T04:19:43;5.73;;;5.20;;
26686;SDS011;14298;50.900;4.648;2023-12-07T04:22:11;4.20;;;3.80;;
26686;SDS011;14298;50.900;4.648;2023-12-07T04:24:39;6.47;;;4.80;;
26686;SDS011;14298;50.900;4.648;2023-12-07T04:27:07;4.83;;;4.43;;
26686;SDS011;14298;50.900;4.648;2023-12-07T04:29:35;6.20;;;5.57;;
26686;SDS011;14298;50.900;4.648;2023-12-07T04:32:03;7.90;;;4.77;;
26686;SDS011;14298;50.900;4.648;2023-12-07T04:34:31;6.50;;;5.27;;
26686;SDS011;14298;50.900;4.648;2023-12-07T04:36:59;4.70;;;4.30;;
26686;SDS011;14298;50.900;4.648;2023-12-07T04:39:27;6.07;;;5.03;;
26686;SDS011;14298;50.900;4.648;2023-12-07T04:41:55;8.40;;;5.87;;
26686;SDS011;14298;50.900;4.648;2023-12-07T04:44:23;5.20;;;4.70;;
26686;SDS011;14298;50.900;4.648;2023-12-07T04:46:54;6.60;;;5.83;;
26686;SDS011;14298;50.900;4.648;2023-12-07T04:49:23;7.53;;;5.80;;
26686;SDS011;14298;50.900;4.648;2023-12-07T04:51:51;5.60;;;5.10;;
26686;SDS011;14298;50.900;4.648;2023-12-07T04:54:19;6.43;;;5.77;;
26686;SDS011;14298;50.900;4.648;2023-12-07T04:56:47;6.00;;;5.40;;
26686;SDS011;14298;50.900;4.648;2023-12-07T04:59:15;7.33;;;6.10;;
26686;SDS011;14298;50.900;4.648;2023-12-07T05:01:43;4.43;;;4.10;;
26686;SDS011;14298;50.900;4.648;2023-12-07T05:04:10;6.60;;;6.07;;
26686;SDS011;14298;50.900;4.648;2023-12-07T05:06:38;5.23;;;4.83;;
26686;SDS011;14298;50.900;4.648;2023-12-07T05:09:06;8.97;;;5.70;;
26686;SDS011;14298;50.900;4.648;2023-12-07T05:11:36;6.03;;;4.23;;
26686;SDS011;14298;50.900;4.648;2023-12-07T05:14:04;9.50;;;6.60;;
26686;SDS011;14298;50.900;4.648;2023-12-07T05:16:32;7.23;;;6.07;;
26686;SDS011;14298;50.900;4.648;2023-12-07T05:19:00;5.50;;;5.00;;
26686;SDS011;14298;50.900;4.648;2023-12-07T05:21:29;5.13;;;4.53;;
26686;SDS011;14298;50.900;4.648;2023-12-07T05:23:58;6.97;;;6.00;;
26686;SDS011;14298;50.900;4.648;2023-12-07T05:26:25;7.33;;;6.63;;
26686;SDS011;14298;50.900;4.648;2023-12-07T05:31:48;5.10;;;4.57;;
26686;SDS011;14298;50.900;4.648;2023-12-07T05:34:17;9.63;;;5.90;;
26686;SDS011;14298;50.900;4.648;2023-12-07T05:36:46;6.90;;;5.70;;
26686;SDS011;14298;50.900;4.648;2023-12-07T05:39:14;6.30;;;5.70;;
26686;SDS011;14298;50.900;4.648;2023-12-07T05:41:44;5.00;;;4.50;;
26686;SDS011;14298;50.900;4.648;2023-12-07T05:44:13;5.27;;;4.40;;
26686;SDS011;14298;50.900;4.648;2023-12-07T05:46:43;11.23;;;4.97;;
26686;SDS011;14298;50.900;4.648;2023-12-07T05:49:11;5.37;;;4.83;;
26686;SDS011;14298;50.900;4.648;2023-12-07T05:51:40;4.73;;;4.20;;
26686;SDS011;14298;50.900;4.648;2023-12-07T05:54:08;5.93;;;5.17;;
26686;SDS011;14298;50.900;4.648;2023-12-07T05:56:36;6.23;;;4.80;;
26686;SDS011;14298;50.900;4.648;2023-12-07T05:59:04;4.97;;;4.57;;
26686;SDS011;14298;50.900;4.648;2023-12-07T06:01:32;11.50;;;4.67;;
26686;SDS011;14298;50.900;4.648;2023-12-07T06:04:00;4.73;;;4.33;;
26686;SDS011;14298;50.900;4.648;2023-12-07T06:06:28;5.67;;;5.17;;
26686;SDS011;14298;50.900;4.648;2023-12-07T06:08:56;6.17;;;5.20;;
26686;SDS011;14298;50.900;4.648;2023-12-07T06:11:24;3.63;;;3.37;;
26686;SDS011;14298;50.900;4.648;2023-12-07T06:13:52;4.63;;;4.23;;
26686;SDS011;14298;50.900;4.648;2023-12-07T06:16:20;5.27;;;4.77;;
26686;SDS011;14298;50.900;4.648;2023-12-07T06:18:48;4.03;;;3.63;;
26686;SDS011;14298;50.900;4.648;2023-12-07T06:21:16;5.03;;;4.63;;
26686;SDS011;14298;50.900;4.648;2023-12-07T06:23:44;6.63;;;4.60;;
26686;SDS011;14298;50.900;4.648;2023-12-07T06:26:13;3.80;;;3.50;;
26686;SDS011;14298;50.900;4.648;2023-12-07T06:28:42;6.73;;;5.10;;
26686;SDS011;14298;50.900;4.648;2023-12-07T06:31:11;5.57;;;4.77;;
26686;SDS011;14298;50.900;4.648;2023-12-07T06:33:39;3.73;;;3.50;;
26686;SDS011;14298;50.900;4.648;2023-12-07T06:36:08;8.67;;;4.83;;
26686;SDS011;14298;50.900;4.648;2023-12-07T06:38:36;4.57;;;4.17;;
26686;SDS011;14298;50.900;4.648;2023-12-07T06:41:05;5.63;;;4.30;;
26686;SDS011;14298;50.900;4.648;2023-12-07T06:43:33;5.00;;;4.50;;
26686;SDS011;14298;50.900;4.648;2023-12-07T06:46:01;11.50;;;8.20;;
26686;SDS011;14298;50.900;4.648;2023-12-07T06:48:29;8.90;;;6.80;;
26686;SDS011;14298;50.900;4.648;2023-12-07T06:50:57;6.73;;;5.03;;
26686;SDS011;14298;50.900;4.648;2023-12-07T06:53:25;10.13;;;7.57;;
26686;SDS011;14298;50.900;4.648;2023-12-07T06:55:53;5.50;;;4.30;;
26686;SDS011;14298;50.900;4.648;2023-12-07T06:58:21;6.70;;;5.27;;
26686;SDS011;14298;50.900;4.648;2023-12-07T07:00:49;6.17;;;3.60;;
26686;SDS011;14298;50.900;4.648;2023-12-07T07:03:17;4.27;;;4.07;;
26686;SDS011;14298;50.900;4.648;2023-12-07T07:05:45;5.87;;;5.23;;
26686;SDS011;14298;50.900;4.648;2023-12-07T07:08:13;3.73;;;3.43;;
26686;SDS011;14298;50.900;4.648;2023-12-07T07:10:41;3.67;;;3.37;;
26686;SDS011;14298;50.900;4.648;2023-12-07T07:13:09;4.20;;;3.53;;
26686;SDS011;14298;50.900;4.648;2023-12-07T07:15:37;4.73;;;3.93;;
26686;SDS011;14298;50.900;4.648;2023-12-07T07:18:05;5.73;;;5.17;;
26686;SDS011;14298;50.900;4.648;2023-12-07T07:20:33;4.40;;;4.00;;
26686;SDS011;14298;50.900;4.648;2023-12-07T07:23:01;3.10;;;2.90;;
26686;SDS011;14298;50.900;4.648;2023-12-07T07:25:29;3.40;;;3.07;;
26686;SDS011;14298;50.900;4.648;2023-12-07T07:27:57;4.83;;;4.33;;
26686;SDS011;14298;50.900;4.648;2023-12-07T07:30:25;6.60;;;4.13;;
26686;SDS011;14298;50.900;4.648;2023-12-07T07:35:40;4.47;;;4.00;;
26686;SDS011;14298;50.900;4.648;2023-12-07T07:38:08;3.97;;;3.57;;
26686;SDS011;14298;50.900;4.648;2023-12-07T07:40:37;8.90;;;3.57;;
26686;SDS011;14298;50.900;4.648;2023-12-07T07:43:05;6.43;;;5.27;;
26686;SDS011;14298;50.900;4.648;2023-12-07T07:45:34;4.23;;;3.87;;
26686;SDS011;14298;50.900;4.648;2023-12-07T07:48:02;3.20;;;3.03;;
26686;SDS011;14298;50.900;4.648;2023-12-07T07:50:30;7.87;;;6.63;;
26686;SDS011;14298;50.900;4.648;2023-12-07T07:52:59;6.07;;;4.30;;
26686;SDS011;14298;50.900;4.648;2023-12-07T07:55:27;3.97;;;3.67;;
26686;SDS011;14298;50.900;4.648;2023-12-07T07:57:54;5.53;;;5.13;;
26686;SDS011;14298;50.900;4.648;2023-12-07T08:03:10;4.23;;;3.83;;
26686;SDS011;14298;50.900;4.648;2023-12-07T08:05:38;4.40;;;4.00;;
26686;SDS011;14298;50.900;4.648;2023-12-07T08:08:06;3.03;;;2.83;;
26686;SDS011;14298;50.900;4.648;2023-12-07T08:10:35;3.43;;;3.13;;
26686;SDS011;14298;50.900;4.648;2023-12-07T08:13:03;5.03;;;3.60;;
26686;SDS011;14298;50.900;4.648;2023-12-07T08:18:19;4.53;;;4.13;;
26686;SDS011;14298;50.900;4.648;2023-12-07T08:20:48;5.67;;;3.80;;
26686;SDS011;14298;50.900;4.648;2023-12-07T08:26:09;2.83;;;2.63;;
26686;SDS011;14298;50.900;4.648;2023-12-07T08:28:37;4.40;;;3.10;;
26686;SDS011;14298;50.900;4.648;2023-12-07T08:31:04;4.47;;;4.07;;
26686;SDS011;14298;50.900;4.648;2023-12-07T08:33:33;3.70;;;3.30;;
26686;SDS011;14298;50.900;4.648;2023-12-07T08:36:02;4.57;;;3.87;;
26686;SDS011;14298;50.900;4.648;2023-12-07T08:38:30;4.77;;;4.37;;
26686;SDS011;14298;50.900;4.648;2023-12-07T08:40:58;8.00;;;4.80;;
26686;SDS011;14298;50.900;4.648;2023-12-07T08:43:26;4.13;;;3.73;;
26686;SDS011;14298;50.900;4.648;2023-12-07T08:45:55;3.50;;;3.20;;
26686;SDS011;14298;50.900;4.648;2023-12-07T08:48:23;8.83;;;4.60;;
26686;SDS011;14298;50.900;4.648;2023-12-07T08:50:51;7.60;;;5.50;;
26686;SDS011;14298;50.900;4.648;2023-12-07T08:53:19;5.27;;;4.87;;
26686;SDS011;14298;50.900;4.648;2023-12-07T08:55:47;3.60;;;3.30;;
26686;SDS011;14298;50.900;4.648;2023-12-07T08:58:15;6.63;;;4.63;;
26686;SDS011;14298;50.900;4.648;2023-12-07T09:03:30;5.20;;;4.53;;
26686;SDS011;14298;50.900;4.648;2023-12-07T09:06:00;5.40;;;3.63;;
26686;SDS011;14298;50.900;4.648;2023-12-07T09:08:29;5.57;;;4.23;;
26686;SDS011;14298;50.900;4.648;2023-12-07T09:10:57;3.77;;;3.50;;
26686;SDS011;14298;50.900;4.648;2023-12-07T09:13:25;4.03;;;3.67;;
26686;SDS011;14298;50.900;4.648;2023-12-07T09:15:53;4.60;;;3.33;;
26686;SDS011;14298;50.900;4.648;2023-12-07T09:18:21;4.13;;;3.57;;
26686;SDS011;14298;50.900;4.648;2023-12-07T09:20:49;7.90;;;5.10;;
26686;SDS011;14298;50.900;4.648;2023-12-07T09:23:17;2.97;;;2.77;;
26686;SDS011;14298;50.900;4.648;2023-12-07T09:25:45;5.13;;;4.67;;
26686;SDS011;14298;50.900;4.648;2023-12-07T09:28:13;4.17;;;3.77;;
26686;SDS011;14298;50.900;4.648;2023-12-07T09:30:41;5.40;;;4.27;;
26686;SDS011;14298;50.900;4.648;2023-12-07T09:33:09;3.73;;;3.37;;
26686;SDS011;14298;50.900;4.648;2023-12-07T09:35:38;2.57;;;2.37;;
26686;SDS011;14298;50.900;4.648;2023-12-07T09:38:06;3.83;;;2.93;;
26686;SDS011;14298;50.900;4.648;2023-12-07T09:40:34;2.40;;;2.07;;
26686;SDS011;14298;50.900;4.648;2023-12-07T09:43:02;7.23;;;3.27;;
26686;SDS011;14298;50.900;4.648;2023-12-07T09:45:30;4.47;;;3.60;;
26686;SDS011;14298;50.900;4.648;2023-12-07T09:47:58;4.17;;;3.50;;
26686;SDS011;14298;50.900;4.648;2023-12-07T09:50:27;5.17;;;2.70;;
26686;SDS011;14298;50.900;4.648;2023-12-07T09:52:56;4.70;;;3.00;;
26686;SDS011;14298;50.900;4.648;2023-12-07T09:55:24;4.00;;;3.70;;
26686;SDS011;14298;50.900;4.648;2023-12-07T09:57:52;5.00;;;4.07;;
26686;SDS011;14298;50.900;4.648;2023-12-07T10:00:22;18.47;;;5.27;;
26686;SDS011;14298;50.900;4.648;2023-12-07T10:02:50;4.40;;;3.43;;
26686;SDS011;14298;50.900;4.648;2023-12-07T10:05:18;3.63;;;2.63;;
26686;SDS011;14298;50.900;4.648;2023-12-07T10:07:48;2.63;;;2.43;;
26686;SDS011;14298;50.900;4.648;2023-12-07T10:10:16;4.70;;;3.37;;
26686;SDS011;14298;50.900;4.648;2023-12-07T10:12:50;2.60;;;2.40;;
26686;SDS011;14298;50.900;4.648;2023-12-07T10:15:17;4.07;;;3.47;;
26686;SDS011;14298;50.900;4.648;2023-12-07T10:17:47;4.23;;;1.80;;
26686;SDS011;14298;50.900;4.648;2023-12-07T10:20:16;9.13;;;3.17;;
26686;SDS011;14298;50.900;4.648;2023-12-07T10:22:45;7.63;;;2.80;;
26686;SDS011;14298;50.900;4.648;2023-12-07T10:25:13;2.80;;;2.60;;
26686;SDS011;14298;50.900;4.648;2023-12-07T10:27:42;9.70;;;3.70;;
26686;SDS011;14298;50.900;4.648;2023-12-07T10:30:10;3.13;;;2.50;;
26686;SDS011;14298;50.900;4.648;2023-12-07T10:32:39;2.23;;;2.10;;
26686;SDS011;14298;50.900;4.648;2023-12-07T10:35:07;2.50;;;2.30;;
26686;SDS011;14298;50.900;4.648;2023-12-07T10:37:36;2.73;;;2.47;;
26686;SDS011;14298;50.900;4.648;2023-12-07T10:40:05;2.77;;;2.53;;
26686;SDS011;14298;50.900;4.648;2023-12-07T10:42:34;12.10;;;2.23;;
26686;SDS011;14298;50.900;4.648;2023-12-07T10:45:03;12.13;;;2.87;;
26686;SDS011;14298;50.900;4.648;2023-12-07T10:47:34;2.63;;;2.43;;
26686;SDS011;14298;50.900;4.648;2023-12-07T10:50:02;2.50;;;2.20;;
26686;SDS011;14298;50.900;4.648;2023-12-07T10:52:31;3.00;;;2.53;;
26686;SDS011;14298;50.900;4.648;2023-12-07T10:55:03;3.60;;;3.30;;
26686;SDS011;14298;50.900;4.648;2023-12-07T10:57:32;3.93;;;3.57;;
26686;SDS011;14298;50.900;4.648;2023-12-07T11:02:50;8.30;;;2.30;;
26686;SDS011;14298;50.900;4.648;2023-12-07T11:05:21;4.83;;;2.60;;
26686;SDS011;14298;50.900;4.648;2023-12-07T11:07:55;2.30;;;2.03;;
26686;SDS011;14298;50.900;4.648;2023-12-07T11:10:27;2.40;;;2.20;;
26686;SDS011;14298;50.900;4.648;2023-12-07T11:13:08;2.63;;;2.43;;
26686;SDS011;14298;50.900;4.648;2023-12-07T11:15:37;2.80;;;2.23;;
26686;SDS011;14298;50.900;4.648;2023-12-07T11:20:52;2.37;;;2.17;;
26686;SDS011;14298;50.900;4.648;2023-12-07T11:23:21;6.00;;;3.10;;
26686;SDS011;14298;50.900;4.648;2023-12-07T11:25:49;3.40;;;3.10;;
26686;SDS011;14298;50.900;4.648;2023-12-07T11:28:17;1.80;;;1.70;;
26686;SDS011;14298;50.900;4.648;2023-12-07T11:30:46;4.87;;;3.67;;
26686;SDS011;14298;50.900;4.648;2023-12-07T11:33:14;3.00;;;2.77;;
26686;SDS011;14298;50.900;4.648;2023-12-07T11:36:16;2.47;;;2.37;;
26686;SDS011;14298;50.900;4.648;2023-12-07T11:38:18;3.33;;;2.97;;
26686;SDS011;14298;50.900;4.648;2023-12-07T11:40:46;6.60;;;4.10;;
26686;SDS011;14298;50.900;4.648;2023-12-07T11:43:57;2.80;;;2.60;;
26686;SDS011;14298;50.900;4.648;2023-12-07T11:45:47;3.63;;;3.33;;
26686;SDS011;14298;50.900;4.648;2023-12-07T11:51:07;8.53;;;3.83;;
26686;SDS011;14298;50.900;4.648;2023-12-07T11:53:35;5.27;;;3.47;;
26686;SDS011;14298;50.900;4.648;2023-12-07T11:56:05;8.60;;;3.83;;
26686;SDS011;14298;50.900;4.648;2023-12-07T11:58:34;2.67;;;2.43;;
26686;SDS011;14298;50.900;4.648;2023-12-07T12:01:03;2.47;;;2.17;;
26686;SDS011;14298;50.900;4.648;2023-12-07T12:03:31;3.77;;;2.33;;
26686;SDS011;14298;50.900;4.648;2023-12-07T12:05:59;1.97;;;1.87;;
26686;SDS011;14298;50.900;4.648;2023-12-07T12:08:27;2.30;;;2.13;;
26686;SDS011;14298;50.900;4.648;2023-12-07T12:10:55;2.33;;;2.10;;
26686;SDS011;14298;50.900;4.648;2023-12-07T12:13:43;3.43;;;2.33;;
26686;SDS011;14298;50.900;4.648;2023-12-07T12:16:21;5.23;;;2.73;;
26686;SDS011;14298;50.900;4.648;2023-12-07T12:18:50;2.17;;;1.97;;
26686;SDS011;14298;50.900;4.648;2023-12-07T12:21:18;2.30;;;2.07;;
26686;SDS011;14298;50.900;4.648;2023-12-07T12:23:47;1.70;;;1.60;;
26686;SDS011;14298;50.900;4.648;2023-12-07T12:26:15;3.63;;;2.57;;
26686;SDS011;14298;50.900;4.648;2023-12-07T12:28:44;2.27;;;1.93;;
26686;SDS011;14298;50.900;4.648;2023-12-07T12:31:12;2.37;;;2.20;;
26686;SDS011;14298;50.900;4.648;2023-12-07T12:36:28;2.83;;;2.13;;
26686;SDS011;14298;50.900;4.648;2023-12-07T12:38:56;2.43;;;1.90;;
26686;SDS011;14298;50.900;4.648;2023-12-07T12:41:24;4.00;;;2.57;;
26686;SDS011;14298;50.900;4.648;2023-12-07T12:43:53;4.90;;;2.10;;
26686;SDS011;14298;50.900;4.648;2023-12-07T12:46:21;1.47;;;1.37;;
26686;SDS011;14298;50.900;4.648;2023-12-07T12:48:55;2.83;;;2.63;;
26686;SDS011;14298;50.900;4.648;2023-12-07T12:51:28;4.03;;;1.80;;
26686;SDS011;14298;50.900;4.648;2023-12-07T12:53:52;2.60;;;2.20;;
26686;SDS011;14298;50.900;4.648;2023-12-07T12:59:08;2.47;;;1.87;;
26686;SDS011;14298;50.900;4.648;2023-12-07T13:01:36;1.63;;;1.40;;
26686;SDS011;14298;50.900;4.648;2023-12-07T13:04:04;2.33;;;2.13;;
26686;SDS011;14298;50.900;4.648;2023-12-07T13:06:32;1.90;;;1.57;;
26686;SDS011;14298;50.900;4.648;2023-12-07T13:09:00;2.27;;;2.07;;
26686;SDS011;14298;50.900;4.648;2023-12-07T13:11:28;3.13;;;2.03;;
26686;SDS011;14298;50.900;4.648;2023-12-07T13:13:56;13.33;;;2.03;;
26686;SDS011;14298;50.900;4.648;2023-12-07T13:16:24;2.60;;;2.37;;
26686;SDS011;14298;50.900;4.648;2023-12-07T13:18:52;2.33;;;2.13;;
26686;SDS011;14298;50.900;4.648;2023-12-07T13:21:20;3.00;;;1.77;;
26686;SDS011;14298;50.900;4.648;2023-12-07T13:23:49;3.23;;;2.50;;
26686;SDS011;14298;50.900;4.648;2023-12-07T13:26:18;1.83;;;1.63;;
26686;SDS011;14298;50.900;4.648;2023-12-07T13:28:47;1.93;;;1.60;;
26686;SDS011;14298;50.900;4.648;2023-12-07T13:31:15;1.30;;;1.20;;
26686;SDS011;14298;50.900;4.648;2023-12-07T13:33:43;3.17;;;2.40;;
26686;SDS011;14298;50.900;4.648;2023-12-07T13:39:00;2.60;;;1.97;;
26686;SDS011;14298;50.900;4.648;2023-12-07T13:41:30;3.37;;;2.70;;
26686;SDS011;14298;50.900;4.648;2023-12-07T13:46:45;2.40;;;2.10;;
26686;SDS011;14298;50.900;4.648;2023-12-07T13:49:13;1.43;;;1.33;;
26686;SDS011;14298;50.900;4.648;2023-12-07T13:51:42;4.53;;;2.70;;
26686;SDS011;14298;50.900;4.648;2023-12-07T13:54:32;2.33;;;1.87;;
26686;SDS011;14298;50.900;4.648;2023-12-07T14:02:44;1.63;;;1.53;;
26686;SDS011;14298;50.900;4.648;2023-12-07T14:05:12;4.37;;;2.00;;
26686;SDS011;14298;50.900;4.648;2023-12-07T14:07:40;5.27;;;2.17;;
26686;SDS011;14298;50.900;4.648;2023-12-07T14:10:08;3.20;;;1.90;;
26686;SDS011;14298;50.900;4.648;2023-12-07T14:12:36;2.33;;;2.13;;
26686;SDS011;14298;50.900;4.648;2023-12-07T14:15:05;2.53;;;1.93;;
26686;SDS011;14298;50.900;4.648;2023-12-07T14:17:34;3.93;;;2.80;;
26686;SDS011;14298;50.900;4.648;2023-12-07T14:20:22;4.23;;;2.47;;
26686;SDS011;14298;50.900;4.648;2023-12-07T14:22:51;2.53;;;1.80;;
26686;SDS011;14298;50.900;4.648;2023-12-07T14:25:19;3.03;;;2.63;;
26686;SDS011;14298;50.900;4.648;2023-12-07T14:27:47;2.40;;;2.07;;
26686;SDS011;14298;50.900;4.648;2023-12-07T14:30:15;2.07;;;1.40;;
26686;SDS011;14298;50.900;4.648;2023-12-07T14:35:31;2.67;;;1.93;;
26686;SDS011;14298;50.900;4.648;2023-12-07T14:37:59;4.23;;;2.40;;
26686;SDS011;14298;50.900;4.648;2023-12-07T14:40:27;2.90;;;2.10;;
26686;SDS011;14298;50.900;4.648;2023-12-07T14:42:55;3.10;;;1.97;;
26686;SDS011;14298;50.900;4.648;2023-12-07T14:45:23;2.03;;;1.90;;
26686;SDS011;14298;50.900;4.648;2023-12-07T14:47:51;4.97;;;2.00;;
26686;SDS011;14298;50.900;4.648;2023-12-07T14:50:19;3.97;;;2.43;;
26686;SDS011;14298;50.900;4.648;2023-12-07T14:52:47;3.13;;;2.83;;
26686;SDS011;14298;50.900;4.648;2023-12-07T14:55:15;1.97;;;1.80;;
26686;SDS011;14298;50.900;4.648;2023-12-07T14:57:45;2.20;;;1.67;;
26686;SDS011;14298;50.900;4.648;2023-12-07T15:00:15;5.40;;;2.30;;
26686;SDS011;14298;50.900;4.648;2023-12-07T15:02:43;1.63;;;1.53;;
26686;SDS011;14298;50.900;4.648;2023-12-07T15:05:11;7.53;;;3.10;;
26686;SDS011;14298;50.900;4.648;2023-12-07T15:07:39;3.13;;;2.93;;
26686;SDS011;14298;50.900;4.648;2023-12-07T15:10:07;2.47;;;2.07;;
26686;SDS011;14298;50.900;4.648;2023-12-07T15:12:35;3.80;;;3.40;;
26686;SDS011;14298;50.900;4.648;2023-12-07T15:15:03;1.80;;;1.70;;
26686;SDS011;14298;50.900;4.648;2023-12-07T15:17:33;2.40;;;1.97;;
26686;SDS011;14298;50.900;4.648;2023-12-07T15:20:00;2.20;;;2.07;;
26686;SDS011;14298;50.900;4.648;2023-12-07T15:22:30;1.90;;;1.80;;
26686;SDS011;14298;50.900;4.648;2023-12-07T15:24:58;2.50;;;2.00;;
26686;SDS011;14298;50.900;4.648;2023-12-07T15:27:26;2.43;;;2.23;;
26686;SDS011;14298;50.900;4.648;2023-12-07T15:29:54;2.00;;;1.67;;
26686;SDS011;14298;50.900;4.648;2023-12-07T15:32:22;2.17;;;1.90;;
26686;SDS011;14298;50.900;4.648;2023-12-07T15:34:50;2.10;;;1.97;;
26686;SDS011;14298;50.900;4.648;2023-12-07T15:37:18;1.40;;;1.30;;
26686;SDS011;14298;50.900;4.648;2023-12-07T15:39:46;3.10;;;1.73;;
26686;SDS011;14298;50.900;4.648;2023-12-07T15:42:14;1.63;;;1.53;;
26686;SDS011;14298;50.900;4.648;2023-12-07T15:44:41;2.97;;;2.70;;
26686;SDS011;14298;50.900;4.648;2023-12-07T15:47:09;3.23;;;2.10;;
26686;SDS011;14298;50.900;4.648;2023-12-07T15:49:38;5.70;;;2.10;;
26686;SDS011;14298;50.900;4.648;2023-12-07T15:52:08;1.67;;;1.53;;
26686;SDS011;14298;50.900;4.648;2023-12-07T15:54:36;2.10;;;1.53;;